This is the latest recevied weather packets stored in our database for station/object HS5FXK-3. If no packets are shown the sender has not sent any weather packets the latest 10 day(s).
| Time | Temp. | Humidity | Pressure | Rain* | Wind** | Luminosity | Snow |
|---|---|---|---|---|---|---|---|
| 1778210537 | 34.44° C | 60% | 981 hPa | - | - | 0 W/m² | - |
| 1778210262 | 35° C | 60% | 981 hPa | - | - | 0 W/m² | - |
| 1778209351 | 33.89° C | 61% | 981 hPa | - | - | 0 W/m² | - |
| 1778208438 | 33.33° C | 62% | 981 hPa | - | - | 0 W/m² | - |
| 1778207526 | 31.67° C | 69% | 981 hPa | - | - | 0 W/m² | - |
| 1778206614 | 31.67° C | 71% | 981 hPa | - | - | 0 W/m² | - |
| 1778205702 | 32.22° C | 68% | 981 hPa | - | - | 0 W/m² | - |
| 1778204789 | 31.67° C | 71% | 981 hPa | - | - | 0 W/m² | - |
| 1778203877 | 30° C | 82% | 981 hPa | - | - | 0 W/m² | - |
| 1778203482 | 29.44° C | 86% | 981 hPa | - | - | 0 W/m² | - |
| 1778202421 | 28.89° C | 89% | 981 hPa | - | - | 0 W/m² | - |
| 1778201532 | 28.89° C | 94% | 981 hPa | - | - | 0 W/m² | - |
| 1778200523 | 27.78° C | 99% | 981 hPa | - | - | 0 W/m² | - |
| 1778199095 | 27.22° C | 99% | 980 hPa | - | - | 0 W/m² | - |
| 1778198183 | 27.22° C | 99% | 980 hPa | - | - | 0 W/m² | - |
| 1778197271 | 26.67° C | 99% | 980 hPa | - | - | 0 W/m² | - |
| 1778196359 | 27.22° C | 99% | 980 hPa | - | - | 0 W/m² | - |
| 1778195447 | 27.22° C | 99% | 980 hPa | - | - | 0 W/m² | - |
| 1778194534 | 27.22° C | 99% | 979 hPa | - | - | 0 W/m² | - |
| 1778193810 | 27.22° C | 99% | 979 hPa | - | - | 0 W/m² | - |
| 1778192898 | 26.67° C | 99% | 979 hPa | - | - | 0 W/m² | - |
| 1778191986 | 27.22° C | 99% | 979 hPa | - | - | 0 W/m² | - |
| 1778191073 | 27.22° C | 99% | 979 hPa | - | - | 0 W/m² | - |
| 1778190161 | 27.22° C | 99% | 979 hPa | - | - | 0 W/m² | - |
| 1778189249 | 27.22° C | 99% | 979 hPa | - | - | 0 W/m² | - |
* Rain since midnight (hover to see other rain measurements)
** Current wind speed in m/s (hover to see current wind gust speed)